sensor_id;sensor_type;location;lat;lon;timestamp;pressure;altitude;pressure_sealevel;temperature;humidity
84734;BME280;74957;48.082;17.260;2024-01-30T00:00:58;1022.935;;;-0.684;99.994
84734;BME280;74957;48.082;17.260;2024-01-30T00:05:56;1022.845;;;-0.744;99.994
84734;BME280;74957;48.082;17.260;2024-01-30T00:10:58;1023.041;;;-0.835;99.994
84734;BME280;74957;48.082;17.260;2024-01-30T00:16:01;1022.659;;;-0.875;99.994
84734;BME280;74957;48.082;17.260;2024-01-30T00:20:58;1022.658;;;-0.875;99.994
84734;BME280;74957;48.082;17.260;2024-01-30T00:26:00;1022.681;;;-0.825;99.994
84734;BME280;74957;48.082;17.260;2024-01-30T00:30:58;1022.756;;;-0.684;99.994
84734;BME280;74957;48.082;17.260;2024-01-30T00:35:58;1022.761;;;-0.623;99.994
84734;BME280;74957;48.082;17.260;2024-01-30T00:41:01;1022.754;;;-0.583;99.994
84734;BME280;74957;48.082;17.260;2024-01-30T00:45:58;1022.719;;;-0.563;99.994
84734;BME280;74957;48.082;17.260;2024-01-30T00:50:56;1022.724;;;-0.512;99.994
84734;BME280;74957;48.082;17.260;2024-01-30T00:55:56;1022.857;;;-0.512;99.994
84734;BME280;74957;48.082;17.260;2024-01-30T01:00:55;1022.697;;;-0.412;99.994
84734;BME280;74957;48.082;17.260;2024-01-30T01:05:54;1022.707;;;-0.432;99.994
84734;BME280;74957;48.082;17.260;2024-01-30T01:10:57;1022.787;;;-0.371;99.994
84734;BME280;74957;48.082;17.260;2024-01-30T01:15:54;1022.632;;;-0.381;99.994
84734;BME280;74957;48.082;17.260;2024-01-30T01:20:54;1022.695;;;-0.402;99.994
84734;BME280;74957;48.082;17.260;2024-01-30T01:25:54;1022.536;;;-0.442;99.994
84734;BME280;74957;48.082;17.260;2024-01-30T01:30:54;1022.598;;;-0.512;99.994
84734;BME280;74957;48.082;17.260;2024-01-30T01:35:54;1022.639;;;-0.543;99.994
84734;BME280;74957;48.082;17.260;2024-01-30T01:40:51;1022.764;;;-0.623;99.994
84734;BME280;74957;48.082;17.260;2024-01-30T01:45:51;1022.708;;;-0.694;99.994
84734;BME280;74957;48.082;17.260;2024-01-30T01:50:51;1022.582;;;-0.835;99.994
84734;BME280;74957;48.082;17.260;2024-01-30T01:55:52;1022.599;;;-0.865;99.994
84734;BME280;74957;48.082;17.260;2024-01-30T02:00:52;1022.643;;;-0.895;99.994
84734;BME280;74957;48.082;17.260;2024-01-30T02:05:53;1022.52;;;-0.895;99.994
84734;BME280;74957;48.082;17.260;2024-01-30T02:10:51;1022.568;;;-0.875;99.994
84734;BME280;74957;48.082;17.260;2024-01-30T02:15:53;1022.492;;;-0.915;99.994
84734;BME280;74957;48.082;17.260;2024-01-30T02:20:55;1022.557;;;-0.945;99.994
84734;BME280;74957;48.082;17.260;2024-01-30T02:25:52;1022.42;;;-1.016;99.994
84734;BME280;74957;48.082;17.260;2024-01-30T02:30:52;1022.624;;;-1.006;99.994
84734;BME280;74957;48.082;17.260;2024-01-30T02:35:56;1022.544;;;-0.986;99.994
84734;BME280;74957;48.082;17.260;2024-01-30T02:40:52;1022.758;;;-1.076;99.994
84734;BME280;74957;48.082;17.260;2024-01-30T02:45:58;1022.646;;;-1.127;99.994
84734;BME280;74957;48.082;17.260;2024-01-30T02:50:58;1022.478;;;-1.167;99.994
84734;BME280;74957;48.082;17.260;2024-01-30T02:55:54;1022.522;;;-1.227;99.994
84734;BME280;74957;48.082;17.260;2024-01-30T03:00:56;1022.549;;;-1.338;99.994
84734;BME280;74957;48.082;17.260;2024-01-30T03:05:55;1022.338;;;-1.338;99.994
84734;BME280;74957;48.082;17.260;2024-01-30T03:10:56;1022.452;;;-1.308;99.994
84734;BME280;74957;48.082;17.260;2024-01-30T03:15:59;1022.446;;;-1.268;99.994
84734;BME280;74957;48.082;17.260;2024-01-30T03:20:56;1022.323;;;-1.338;99.994
84734;BME280;74957;48.082;17.260;2024-01-30T03:25:59;1022.243;;;-1.268;99.994
84734;BME280;74957;48.082;17.260;2024-01-30T03:30:54;1022.282;;;-1.308;99.994
84734;BME280;74957;48.082;17.260;2024-01-30T03:35:55;1022.182;;;-1.237;99.994
84734;BME280;74957;48.082;17.260;2024-01-30T03:40:55;1022.178;;;-1.258;99.994
84734;BME280;74957;48.082;17.260;2024-01-30T03:45:54;1022.147;;;-1.288;99.994
84734;BME280;74957;48.082;17.260;2024-01-30T03:50:55;1022.215;;;-1.237;99.994
84734;BME280;74957;48.082;17.260;2024-01-30T03:55:53;1022.266;;;-1.207;99.994
84734;BME280;74957;48.082;17.260;2024-01-30T04:00:55;1022.267;;;-1.137;99.994
84734;BME280;74957;48.082;17.260;2024-01-30T04:05:56;1022.324;;;-1.137;99.994
84734;BME280;74957;48.082;17.260;2024-01-30T04:11:02;1022.379;;;-1.137;99.994
84734;BME280;74957;48.082;17.260;2024-01-30T04:15:55;1022.176;;;-1.127;99.994
84734;BME280;74957;48.082;17.260;2024-01-30T04:20:58;1022.244;;;-1.127;99.994
84734;BME280;74957;48.082;17.260;2024-01-30T04:25:54;1022.379;;;-1.137;99.994
84734;BME280;74957;48.082;17.260;2024-01-30T04:30:55;1022.348;;;-1.076;99.994
84734;BME280;74957;48.082;17.260;2024-01-30T04:35:56;1022.333;;;-1.127;99.994
84734;BME280;74957;48.082;17.260;2024-01-30T04:40:56;1022.345;;;-1.207;99.994
84734;BME280;74957;48.082;17.260;2024-01-30T04:45:55;1022.412;;;-1.258;99.994
84734;BME280;74957;48.082;17.260;2024-01-30T04:50:53;1022.472;;;-1.237;99.994
84734;BME280;74957;48.082;17.260;2024-01-30T04:55:52;1022.423;;;-1.258;99.994
84734;BME280;74957;48.082;17.260;2024-01-30T05:00:53;1022.476;;;-1.258;99.994
84734;BME280;74957;48.082;17.260;2024-01-30T05:06:02;1022.321;;;-1.308;99.994
84734;BME280;74957;48.082;17.260;2024-01-30T05:10:59;1022.265;;;-1.318;99.994
84734;BME280;74957;48.082;17.260;2024-01-30T05:15:55;1022.412;;;-1.348;99.994
84734;BME280;74957;48.082;17.260;2024-01-30T05:20:54;1022.352;;;-1.368;99.994
84734;BME280;74957;48.082;17.260;2024-01-30T05:25:55;1022.452;;;-1.378;99.994
84734;BME280;74957;48.082;17.260;2024-01-30T05:30:53;1022.577;;;-1.419;99.994
84734;BME280;74957;48.082;17.260;2024-01-30T05:35:52;1022.478;;;-1.389;99.994
84734;BME280;74957;48.082;17.260;2024-01-30T05:40:56;1022.46;;;-1.378;99.994
84734;BME280;74957;48.082;17.260;2024-01-30T05:45:53;1022.53;;;-1.409;99.994
84734;BME280;74957;48.082;17.260;2024-01-30T05:50:54;1022.418;;;-1.419;99.994
84734;BME280;74957;48.082;17.260;2024-01-30T05:55:56;1022.57;;;-1.419;99.994
84734;BME280;74957;48.082;17.260;2024-01-30T06:00:56;1022.617;;;-1.389;99.994
84734;BME280;74957;48.082;17.260;2024-01-30T06:05:54;1022.566;;;-1.409;99.994
84734;BME280;74957;48.082;17.260;2024-01-30T06:10:57;1022.623;;;-1.499;99.994
84734;BME280;74957;48.082;17.260;2024-01-30T06:15:58;1022.699;;;-1.469;99.994
84734;BME280;74957;48.082;17.260;2024-01-30T06:20:57;1022.647;;;-1.519;99.994
84734;BME280;74957;48.082;17.260;2024-01-30T06:25:55;1022.682;;;-1.53;99.994
84734;BME280;74957;48.082;17.260;2024-01-30T06:30:55;1022.688;;;-1.56;99.994
84734;BME280;74957;48.082;17.260;2024-01-30T06:36:00;1022.704;;;-1.56;99.994
84734;BME280;74957;48.082;17.260;2024-01-30T06:40:57;1022.775;;;-1.56;99.994
84734;BME280;74957;48.082;17.260;2024-01-30T06:45:59;1022.852;;;-1.439;99.994
84734;BME280;74957;48.082;17.260;2024-01-30T06:51:00;1022.804;;;-1.378;99.994
84734;BME280;74957;48.082;17.260;2024-01-30T06:55:58;1022.959;;;-1.288;99.994
84734;BME280;74957;48.082;17.260;2024-01-30T07:01:03;1022.868;;;-1.187;99.994
84734;BME280;74957;48.082;17.260;2024-01-30T07:05:58;1022.878;;;-1.006;99.994
84734;BME280;74957;48.082;17.260;2024-01-30T07:11:00;1022.775;;;-0.734;99.994
84734;BME280;74957;48.082;17.260;2024-01-30T07:16:00;1023.042;;;-0.452;99.994
84734;BME280;74957;48.082;17.260;2024-01-30T07:21:03;1022.691;;;-0.291;99.994
84734;BME280;74957;48.082;17.260;2024-01-30T07:26:00;1022.833;;;-0.321;99.994
84734;BME280;74957;48.082;17.260;2024-01-30T07:31:00;1022.924;;;-0.11;99.591
84734;BME280;74957;48.082;17.260;2024-01-30T07:36:02;1022.931;;;-0.14;99.701
84734;BME280;74957;48.082;17.260;2024-01-30T07:41:01;1022.92;;;-0.009;99.445
84734;BME280;74957;48.082;17.260;2024-01-30T07:46:02;1022.899;;;0.062;99.445
84734;BME280;74957;48.082;17.260;2024-01-30T07:50:59;1023.157;;;0.132;99.023
84734;BME280;74957;48.082;17.260;2024-01-30T07:56:06;1023.018;;;0.293;98.56
84734;BME280;74957;48.082;17.260;2024-01-30T08:00:58;1022.865;;;0.323;98.773
84734;BME280;74957;48.082;17.260;2024-01-30T08:05:57;1023.037;;;0.384;98.773
84734;BME280;74957;48.082;17.260;2024-01-30T08:11:02;1023.046;;;0.565;98.206
84734;BME280;74957;48.082;17.260;2024-01-30T08:15:58;1023.212;;;0.827;97.278
84734;BME280;74957;48.082;17.260;2024-01-30T08:20:58;1022.965;;;1.3;95.831
84734;BME280;74957;48.082;17.260;2024-01-30T08:25:58;1023.138;;;1.391;95.001
84734;BME280;74957;48.082;17.260;2024-01-30T08:30:58;1023.208;;;1.683;93.768
84734;BME280;74957;48.082;17.260;2024-01-30T08:36:00;1023.186;;;1.935;92.889
84734;BME280;74957;48.082;17.260;2024-01-30T08:40:59;1023.093;;;2.156;92.328
84734;BME280;74957;48.082;17.260;2024-01-30T08:45:59;1022.971;;;2.599;90.472
84734;BME280;74957;48.082;17.260;2024-01-30T08:51:00;1022.992;;;2.599;89.331
84734;BME280;74957;48.082;17.260;2024-01-30T08:55:59;1023.178;;;3.294;88.171
84734;BME280;74957;48.082;17.260;2024-01-30T09:01:06;1023.163;;;3.576;86.053
84734;BME280;74957;48.082;17.260;2024-01-30T09:06:07;1023.119;;;3.999;84.314
84734;BME280;74957;48.082;17.260;2024-01-30T09:11:01;1023.085;;;3.737;85.291
84734;BME280;74957;48.082;17.260;2024-01-30T09:16:01;1023.046;;;3.899;85.144
84734;BME280;74957;48.082;17.260;2024-01-30T09:21:03;1023.127;;;3.919;85.767
84734;BME280;74957;48.082;17.260;2024-01-30T09:26:01;1023.225;;;4.563;83.575
84734;BME280;74957;48.082;17.260;2024-01-30T09:31:02;1023.201;;;4.664;83.264
84734;BME280;74957;48.082;17.260;2024-01-30T09:36:06;1023.237;;;4.996;81.537
84734;BME280;74957;48.082;17.260;2024-01-30T09:41:08;1023.288;;;5.157;81.641
84734;BME280;74957;48.082;17.260;2024-01-30T09:46:05;1023.222;;;4.996;81.018
84734;BME280;74957;48.082;17.260;2024-01-30T09:51:06;1023.108;;;5.077;81.641
84734;BME280;74957;48.082;17.260;2024-01-30T09:56:06;1023.263;;;5.228;81.39
84734;BME280;74957;48.082;17.260;2024-01-30T10:01:04;1023.172;;;5.53;80.841
84734;BME280;74957;48.082;17.260;2024-01-30T10:06:00;1023.127;;;5.389;80.426
84734;BME280;74957;48.082;17.260;2024-01-30T10:11:04;1023.16;;;6.175;78.662
84734;BME280;74957;48.082;17.260;2024-01-30T10:16:02;1023.19;;;5.963;78.802
84734;BME280;74957;48.082;17.260;2024-01-30T10:21:04;1023.048;;;5.742;79.559
84734;BME280;74957;48.082;17.260;2024-01-30T10:26:02;1022.989;;;5.953;78.387
84734;BME280;74957;48.082;17.260;2024-01-30T10:31:02;1022.841;;;5.973;78.491
84734;BME280;74957;48.082;17.260;2024-01-30T10:36:04;1022.795;;;6.084;77.216
84734;BME280;74957;48.082;17.260;2024-01-30T10:41:04;1022.957;;;6.769;76.288
84734;BME280;74957;48.082;17.260;2024-01-30T10:46:07;1022.842;;;6.114;77.631
84734;BME280;74957;48.082;17.260;2024-01-30T10:51:06;1022.766;;;5.872;78.387
84734;BME280;74957;48.082;17.260;2024-01-30T10:56:08;1022.512;;;5.782;79.254
84734;BME280;74957;48.082;17.260;2024-01-30T11:01:02;1022.561;;;5.792;80.078
84734;BME280;74957;48.082;17.260;2024-01-30T11:06:04;1022.356;;;6.114;79.486
84734;BME280;74957;48.082;17.260;2024-01-30T11:11:01;1022.353;;;6.134;78.87
84734;BME280;74957;48.082;17.260;2024-01-30T11:16:02;1022.318;;;6.577;77.869
84734;BME280;74957;48.082;17.260;2024-01-30T11:21:04;1022.184;;;6.114;79.486
84734;BME280;74957;48.082;17.260;2024-01-30T11:26:00;1022.169;;;6.326;78.833
84734;BME280;74957;48.082;17.260;2024-01-30T11:31:06;1022.203;;;6.91;77.216
84734;BME280;74957;48.082;17.260;2024-01-30T11:36:04;1022.213;;;6.658;77.765
84734;BME280;74957;48.082;17.260;2024-01-30T11:41:01;1021.997;;;6.366;79.248
84734;BME280;74957;48.082;17.260;2024-01-30T11:46:03;1021.977;;;6.577;78.9
84734;BME280;74957;48.082;17.260;2024-01-30T11:51:03;1022.049;;;6.336;80.481
84734;BME280;74957;48.082;17.260;2024-01-30T11:56:01;1021.951;;;6.185;79.59
84734;BME280;74957;48.082;17.260;2024-01-30T12:01:00;1021.778;;;6.295;76.251
84734;BME280;74957;48.082;17.260;2024-01-30T12:06:00;1021.591;;;6.265;75.842
84734;BME280;74957;48.082;17.260;2024-01-30T12:11:06;1021.573;;;6.285;75.012
84734;BME280;74957;48.082;17.260;2024-01-30T12:15:58;1021.627;;;6.467;75.116
84734;BME280;74957;48.082;17.260;2024-01-30T12:21:01;1021.557;;;6.517;75.085
84734;BME280;74957;48.082;17.260;2024-01-30T12:25:59;1021.455;;;6.436;74.396
84734;BME280;74957;48.082;17.260;2024-01-30T12:31:04;1021.529;;;6.396;75.22
84734;BME280;74957;48.082;17.260;2024-01-30T12:36:05;1021.407;;;6.588;74.359
84734;BME280;74957;48.082;17.260;2024-01-30T12:40:58;1021.278;;;6.749;74.121
84734;BME280;74957;48.082;17.260;2024-01-30T12:45:58;1021.305;;;6.769;73.505
84734;BME280;74957;48.082;17.260;2024-01-30T12:51:05;1021.488;;;6.799;74.017
84734;BME280;74957;48.082;17.260;2024-01-30T12:56:01;1021.244;;;6.87;74.432
84734;BME280;74957;48.082;17.260;2024-01-30T13:01:00;1021.358;;;6.658;74.982
84734;BME280;74957;48.082;17.260;2024-01-30T13:06:00;1021.395;;;6.729;75.36
84734;BME280;74957;48.082;17.260;2024-01-30T13:11:02;1021.273;;;6.729;74.945
84734;BME280;74957;48.082;17.260;2024-01-30T13:16:02;1021.196;;;6.95;72.748
84734;BME280;74957;48.082;17.260;2024-01-30T13:20:57;1021.332;;;7.031;72.437
84734;BME280;74957;48.082;17.260;2024-01-30T13:26:00;1021.256;;;6.94;74.292
84734;BME280;74957;48.082;17.260;2024-01-30T13:31:01;1021.333;;;6.92;73.572
84734;BME280;74957;48.082;17.260;2024-01-30T13:36:00;1021.141;;;6.799;72.473
84734;BME280;74957;48.082;17.260;2024-01-30T13:40:56;1021.217;;;6.95;72.54
84734;BME280;74957;48.082;17.260;2024-01-30T13:46:01;1021.196;;;7.021;71.405
84734;BME280;74957;48.082;17.260;2024-01-30T13:51:00;1021.167;;;6.95;71.204
84734;BME280;74957;48.082;17.260;2024-01-30T13:56:02;1021.312;;;6.88;72.058
84734;BME280;74957;48.082;17.260;2024-01-30T14:00:58;1021.269;;;6.88;72.162
84734;BME280;74957;48.082;17.260;2024-01-30T14:06:00;1021.132;;;6.839;74.634
84734;BME280;74957;48.082;17.260;2024-01-30T14:10:56;1021.126;;;6.759;75.256
84734;BME280;74957;48.082;17.260;2024-01-30T14:15:59;1021.196;;;6.829;76.184
84734;BME280;74957;48.082;17.260;2024-01-30T14:21:00;1021.165;;;6.688;76.013
84734;BME280;74957;48.082;17.260;2024-01-30T14:25:57;1021.087;;;6.628;76.526
84734;BME280;74957;48.082;17.260;2024-01-30T14:30:58;1021.054;;;6.588;76.526
84734;BME280;74957;48.082;17.260;2024-01-30T14:35:57;1021.044;;;6.507;76.733
84734;BME280;74957;48.082;17.260;2024-01-30T14:40:58;1021.034;;;6.356;76.251
84734;BME280;74957;48.082;17.260;2024-01-30T14:45:58;1020.933;;;6.336;77.594
84734;BME280;74957;48.082;17.260;2024-01-30T14:51:00;1021.028;;;6.295;78.729
84734;BME280;74957;48.082;17.260;2024-01-30T14:55:57;1020.819;;;6.134;80.109
84734;BME280;74957;48.082;17.260;2024-01-30T15:00:56;1021.028;;;5.993;80.658
84734;BME280;74957;48.082;17.260;2024-01-30T15:06:02;1020.945;;;5.903;81.177
84734;BME280;74957;48.082;17.260;2024-01-30T15:10:58;1021.023;;;5.752;81.836
84734;BME280;74957;48.082;17.260;2024-01-30T15:15:58;1021.016;;;5.54;82.703
84734;BME280;74957;48.082;17.260;2024-01-30T15:20:57;1021.245;;;5.409;83.215
84734;BME280;74957;48.082;17.260;2024-01-30T15:26:00;1021.02;;;5.309;83.771
84734;BME280;74957;48.082;17.260;2024-01-30T15:30:56;1021.064;;;5.087;84.326
84734;BME280;74957;48.082;17.260;2024-01-30T15:35:55;1021.053;;;4.986;84.637
84734;BME280;74957;48.082;17.260;2024-01-30T15:40:58;1021.132;;;4.714;85.651
84734;BME280;74957;48.082;17.260;2024-01-30T15:45:59;1021.088;;;4.533;86.371
84734;BME280;74957;48.082;17.260;2024-01-30T15:50:56;1021.145;;;4.382;87.451
84734;BME280;74957;48.082;17.260;2024-01-30T15:55:54;1021.021;;;4.231;88.214
84734;BME280;74957;48.082;17.260;2024-01-30T16:00:54;1021.051;;;4.019;88.879
84734;BME280;74957;48.082;17.260;2024-01-30T16:05:53;1020.993;;;3.818;89.648
84734;BME280;74957;48.082;17.260;2024-01-30T16:10:54;1021.027;;;3.576;90.826
84734;BME280;74957;48.082;17.260;2024-01-30T16:15:56;1021.024;;;3.456;91.864
84734;BME280;74957;48.082;17.260;2024-01-30T16:20:59;1021.104;;;3.385;92.218
84734;BME280;74957;48.082;17.260;2024-01-30T16:25:56;1021.09;;;3.254;92.633
84734;BME280;74957;48.082;17.260;2024-01-30T16:31:00;1021.094;;;3.143;93.097
84734;BME280;74957;48.082;17.260;2024-01-30T16:35:55;1021.108;;;3.063;93.408
84734;BME280;74957;48.082;17.260;2024-01-30T16:40:57;1021.149;;;2.952;93.762
84734;BME280;74957;48.082;17.260;2024-01-30T16:45:56;1020.992;;;2.781;93.97
84734;BME280;74957;48.082;17.260;2024-01-30T16:50:57;1020.99;;;2.569;94.739
84734;BME280;74957;48.082;17.260;2024-01-30T16:55:59;1021.194;;;2.469;95.514
84734;BME280;74957;48.082;17.260;2024-01-30T17:00:56;1021.226;;;2.348;95.721
84734;BME280;74957;48.082;17.260;2024-01-30T17:05:54;1021.224;;;2.207;96.387
84734;BME280;74957;48.082;17.260;2024-01-30T17:10:54;1021.287;;;2.076;97.058
84734;BME280;74957;48.082;17.260;2024-01-30T17:15:54;1021.002;;;1.985;97.266
84734;BME280;74957;48.082;17.260;2024-01-30T17:20:57;1021.101;;;1.895;98.041
84734;BME280;74957;48.082;17.260;2024-01-30T17:25:59;1020.773;;;1.844;97.937
84734;BME280;74957;48.082;17.260;2024-01-30T17:30:54;1020.935;;;1.754;98.145
84734;BME280;74957;48.082;17.260;2024-01-30T17:35:57;1020.921;;;1.572;98.706
84734;BME280;74957;48.082;17.260;2024-01-30T17:40:59;1020.792;;;1.441;99.17
84734;BME280;74957;48.082;17.260;2024-01-30T17:45:57;1020.725;;;1.361;99.799
84734;BME280;74957;48.082;17.260;2024-01-30T17:50:55;1020.878;;;1.29;99.799
84734;BME280;74957;48.082;17.260;2024-01-30T17:55:57;1020.749;;;1.22;99.945
84734;BME280;74957;48.082;17.260;2024-01-30T18:01:02;1020.936;;;1.149;99.994
84734;BME280;74957;48.082;17.260;2024-01-30T18:05:56;1020.937;;;1.039;99.994
84734;BME280;74957;48.082;17.260;2024-01-30T18:10:55;1020.946;;;1.008;99.994
84734;BME280;74957;48.082;17.260;2024-01-30T18:15:57;1021.085;;;1.049;99.994
84734;BME280;74957;48.082;17.260;2024-01-30T18:20:57;1021.196;;;1.079;99.994
84734;BME280;74957;48.082;17.260;2024-01-30T18:25:59;1021.026;;;1.079;99.994
84734;BME280;74957;48.082;17.260;2024-01-30T18:30:57;1020.993;;;1.099;99.994
84734;BME280;74957;48.082;17.260;2024-01-30T18:35:55;1020.999;;;1.049;99.994
84734;BME280;74957;48.082;17.260;2024-01-30T18:40:55;1020.984;;;0.958;99.994
84734;BME280;74957;48.082;17.260;2024-01-30T18:45:55;1020.907;;;0.938;99.994
84734;BME280;74957;48.082;17.260;2024-01-30T18:50:54;1020.998;;;0.757;99.994
84734;BME280;74957;48.082;17.260;2024-01-30T18:55:51;1021.02;;;0.636;99.994
84734;BME280;74957;48.082;17.260;2024-01-30T19:00:53;1020.805;;;0.535;99.994
84734;BME280;74957;48.082;17.260;2024-01-30T19:05:53;1020.823;;;0.565;99.994
84734;BME280;74957;48.082;17.260;2024-01-30T19:10:57;1020.77;;;0.475;99.994
84734;BME280;74957;48.082;17.260;2024-01-30T19:15:55;1020.714;;;0.424;99.994
84734;BME280;74957;48.082;17.260;2024-01-30T19:20:56;1020.863;;;0.354;99.994
84734;BME280;74957;48.082;17.260;2024-01-30T19:25:54;1020.796;;;0.374;99.994
84734;BME280;74957;48.082;17.260;2024-01-30T19:30:55;1020.988;;;0.313;99.994
84734;BME280;74957;48.082;17.260;2024-01-30T19:35:54;1020.809;;;0.283;99.994
84734;BME280;74957;48.082;17.260;2024-01-30T19:40:54;1020.968;;;0.253;99.994
84734;BME280;74957;48.082;17.260;2024-01-30T19:45:53;1020.877;;;0.213;99.994
84734;BME280;74957;48.082;17.260;2024-01-30T19:50:52;1020.916;;;0.132;99.994
84734;BME280;74957;48.082;17.260;2024-01-30T19:55:52;1020.771;;;0.072;99.994
84734;BME280;74957;48.082;17.260;2024-01-30T20:00:51;1020.772;;;0.102;99.994
84734;BME280;74957;48.082;17.260;2024-01-30T20:05:51;1020.903;;;0.062;99.994
84734;BME280;74957;48.082;17.260;2024-01-30T20:10:51;1020.968;;;0.062;99.994
84734;BME280;74957;48.082;17.260;2024-01-30T20:15:51;1020.678;;;-0.019;99.994
84734;BME280;74957;48.082;17.260;2024-01-30T20:20:52;1020.885;;;-0.079;99.994
84734;BME280;74957;48.082;17.260;2024-01-30T20:25:52;1020.848;;;-0.079;99.994
84734;BME280;74957;48.082;17.260;2024-01-30T20:30:51;1020.657;;;-0.16;99.994
84734;BME280;74957;48.082;17.260;2024-01-30T20:35:51;1020.695;;;-0.12;99.994
84734;BME280;74957;48.082;17.260;2024-01-30T20:40:51;1020.713;;;-0.16;99.994
84734;BME280;74957;48.082;17.260;2024-01-30T20:46:09;1020.606;;;-0.19;99.994
84734;BME280;74957;48.082;17.260;2024-01-30T20:50:53;1020.652;;;-0.16;99.994
84734;BME280;74957;48.082;17.260;2024-01-30T20:55:51;1020.583;;;-0.22;99.994
84734;BME280;74957;48.082;17.260;2024-01-30T21:00:51;1020.593;;;-0.19;99.994
84734;BME280;74957;48.082;17.260;2024-01-30T21:05:51;1020.669;;;-0.16;99.994
84734;BME280;74957;48.082;17.260;2024-01-30T21:10:56;1020.623;;;-0.16;99.994
84734;BME280;74957;48.082;17.260;2024-01-30T21:15:56;1020.621;;;-0.19;99.994
84734;BME280;74957;48.082;17.260;2024-01-30T21:20:52;1020.559;;;-0.23;99.994
84734;BME280;74957;48.082;17.260;2024-01-30T21:25:56;1020.682;;;-0.19;99.994
84734;BME280;74957;48.082;17.260;2024-01-30T21:30:57;1020.653;;;-0.22;99.994
84734;BME280;74957;48.082;17.260;2024-01-30T21:35:58;1020.458;;;-0.2;99.994
84734;BME280;74957;48.082;17.260;2024-01-30T21:40:55;1020.564;;;-0.23;99.994
84734;BME280;74957;48.082;17.260;2024-01-30T21:45:54;1020.481;;;-0.291;99.994
84734;BME280;74957;48.082;17.260;2024-01-30T21:50:58;1020.378;;;-0.291;99.994
84734;BME280;74957;48.082;17.260;2024-01-30T21:55:52;1020.767;;;-0.291;99.994
84734;BME280;74957;48.082;17.260;2024-01-30T22:00:58;1020.517;;;-0.321;99.994
84734;BME280;74957;48.082;17.260;2024-01-30T22:05:56;1020.351;;;-0.271;99.994
84734;BME280;74957;48.082;17.260;2024-01-30T22:10:54;1020.468;;;-0.271;99.994
84734;BME280;74957;48.082;17.260;2024-01-30T22:15:56;1020.275;;;-0.23;99.994
84734;BME280;74957;48.082;17.260;2024-01-30T22:20:55;1020.549;;;-0.271;99.994
84734;BME280;74957;48.082;17.260;2024-01-30T22:25:54;1020.44;;;-0.251;99.994
84734;BME280;74957;48.082;17.260;2024-01-30T22:31:00;1020.779;;;-0.22;99.994
84734;BME280;74957;48.082;17.260;2024-01-30T22:35:56;1020.662;;;-0.23;99.994
84734;BME280;74957;48.082;17.260;2024-01-30T22:41:00;1020.807;;;-0.23;99.994
84734;BME280;74957;48.082;17.260;2024-01-30T22:45:56;1020.576;;;-0.402;99.994
84734;BME280;74957;48.082;17.260;2024-01-30T22:50:58;1020.691;;;-0.412;99.994
84734;BME280;74957;48.082;17.260;2024-01-30T22:55:54;1020.58;;;-0.563;99.994
84734;BME280;74957;48.082;17.260;2024-01-30T23:01:07;1020.238;;;-0.583;99.994
84734;BME280;74957;48.082;17.260;2024-01-30T23:05:54;1020.354;;;-0.583;99.994
84734;BME280;74957;48.082;17.260;2024-01-30T23:10:55;1020.689;;;-0.623;99.994
84734;BME280;74957;48.082;17.260;2024-01-30T23:15:55;1020.522;;;-0.623;99.994
84734;BME280;74957;48.082;17.260;2024-01-30T23:20:56;1020.524;;;-0.613;99.994
84734;BME280;74957;48.082;17.260;2024-01-30T23:25:54;1020.497;;;-0.623;99.994
84734;BME280;74957;48.082;17.260;2024-01-30T23:30:55;1020.589;;;-0.623;99.994
84734;BME280;74957;48.082;17.260;2024-01-30T23:35:55;1020.498;;;-0.653;99.994
84734;BME280;74957;48.082;17.260;2024-01-30T23:40:55;1020.648;;;-0.653;99.994
84734;BME280;74957;48.082;17.260;2024-01-30T23:45:59;1020.588;;;-0.633;99.994
84734;BME280;74957;48.082;17.260;2024-01-30T23:50:56;1020.719;;;-0.613;99.994
84734;BME280;74957;48.082;17.260;2024-01-30T23:55:54;1020.602;;;-0.633;99.994
